createdAt,value
2023-05-20T00:00:53.970Z,9.27
2023-05-20T00:05:56.253Z,9.70
2023-05-20T00:10:58.464Z,9.90
2023-05-20T00:16:01.052Z,9.57
2023-05-20T00:21:03.315Z,10.18
2023-05-20T00:26:05.623Z,9.75
2023-05-20T00:31:08.449Z,10.83
2023-05-20T00:36:10.607Z,10.52
2023-05-20T00:41:12.786Z,10.55
2023-05-20T00:46:14.970Z,10.77
2023-05-20T00:51:17.480Z,10.70
2023-05-20T00:56:21.645Z,10.37
2023-05-20T01:01:23.977Z,10.02
2023-05-20T01:06:26.245Z,10.25
2023-05-20T01:11:37.592Z,10.30
2023-05-20T01:16:40.617Z,10.70
2023-05-20T01:21:43.997Z,10.93
2023-05-20T01:26:48.490Z,9.95
2023-05-20T01:31:54.216Z,10.57
2023-05-20T01:36:57.885Z,10.57
2023-05-20T01:42:02.229Z,10.85
2023-05-20T01:47:04.762Z,9.80
2023-05-20T01:52:07.074Z,10.80
2023-05-20T01:57:09.264Z,10.20
2023-05-20T02:02:11.570Z,10.15
2023-05-20T02:07:15.190Z,9.98
2023-05-20T02:12:17.490Z,9.90
2023-05-20T02:17:19.988Z,9.90
2023-05-20T02:22:22.194Z,9.88
2023-05-20T02:27:24.385Z,9.88
2023-05-20T02:32:28.481Z,9.48
2023-05-20T02:37:30.641Z,9.43
2023-05-20T02:42:32.838Z,9.20
2023-05-20T02:47:35.097Z,8.93
2023-05-20T02:52:37.390Z,9.95
2023-05-20T02:57:39.695Z,10.02
2023-05-20T03:02:41.996Z,9.77
2023-05-20T03:07:44.230Z,10.00
2023-05-20T03:12:46.428Z,10.90
2023-05-20T03:17:48.584Z,10.13
2023-05-20T03:22:50.835Z,9.85
2023-05-20T03:27:53.053Z,10.97
2023-05-20T03:32:58.091Z,10.05
2023-05-20T03:38:11.003Z,10.52
2023-05-20T03:43:13.187Z,10.52
2023-05-20T03:48:15.393Z,10.70
2023-05-20T03:53:17.639Z,11.00
2023-05-20T03:58:20.965Z,10.30
2023-05-20T04:03:28.424Z,10.52
2023-05-20T04:08:30.764Z,10.63
2023-05-20T04:13:33.164Z,9.98
2023-05-20T04:18:39.373Z,10.50
2023-05-20T04:23:41.913Z,10.23
2023-05-20T04:28:44.129Z,10.40
2023-05-20T04:33:52.526Z,10.07
2023-05-20T04:38:55.999Z,10.13
2023-05-20T04:43:59.965Z,10.10
2023-05-20T04:49:02.189Z,10.40
2023-05-20T04:54:04.484Z,9.55
2023-05-20T04:59:06.724Z,9.27
2023-05-20T05:04:08.992Z,9.57
2023-05-20T05:09:11.225Z,9.63
2023-05-20T05:14:13.439Z,9.38
2023-05-20T05:19:15.936Z,8.88
2023-05-20T05:24:18.390Z,8.95
2023-05-20T05:29:20.875Z,9.40
2023-05-20T05:34:23.102Z,8.70
2023-05-20T05:39:25.245Z,9.07
2023-05-20T05:44:27.429Z,9.07
2023-05-20T05:49:29.635Z,8.35
2023-05-20T05:54:31.786Z,8.57
2023-05-20T05:59:33.983Z,8.37
2023-05-20T06:04:36.254Z,8.15
2023-05-20T06:09:39.252Z,9.70
2023-05-20T06:14:41.588Z,8.43
2023-05-20T06:19:43.814Z,8.35
2023-05-20T06:24:45.995Z,8.57
2023-05-20T06:29:48.318Z,8.52
2023-05-20T06:34:50.748Z,10.60
2023-05-20T06:39:54.084Z,9.63
2023-05-20T06:44:56.377Z,7.72
2023-05-20T06:49:58.556Z,7.70
2023-05-20T06:55:00.789Z,8.50
2023-05-20T07:00:05.983Z,8.43
2023-05-20T07:05:08.677Z,7.75
2023-05-20T07:10:11.003Z,8.23
2023-05-20T07:15:13.275Z,8.10
2023-05-20T07:20:15.810Z,8.40
2023-05-20T07:25:18.138Z,8.35
2023-05-20T07:30:20.315Z,8.50
2023-05-20T07:35:22.501Z,7.95
2023-05-20T07:40:24.791Z,8.67
2023-05-20T07:45:27.185Z,8.65
2023-05-20T07:50:29.338Z,8.20
2023-05-20T07:55:37.188Z,7.75
2023-05-20T08:00:39.573Z,8.48
2023-05-20T08:05:42.342Z,9.50
2023-05-20T08:10:44.887Z,10.05
2023-05-20T08:15:48.694Z,10.18
2023-05-20T08:20:51.380Z,11.93
2023-05-20T08:25:53.815Z,11.45
2023-05-20T08:30:56.125Z,12.17
2023-05-20T08:35:58.366Z,13.40
2023-05-20T08:41:02.414Z,14.18
2023-05-20T08:46:12.259Z,15.45
2023-05-20T08:51:17.785Z,15.73
2023-05-20T08:56:22.023Z,15.63
2023-05-20T09:01:26.208Z,16.40
2023-05-20T09:06:28.421Z,16.23
2023-05-20T09:11:30.973Z,17.05
2023-05-20T09:16:33.622Z,17.85
2023-05-20T09:21:36.295Z,16.53
2023-05-20T09:26:38.698Z,16.75
2023-05-20T09:31:41.267Z,18.65
2023-05-20T09:36:48.090Z,16.45
2023-05-20T09:41:57.196Z,19.17
2023-05-20T09:47:01.227Z,19.10
2023-05-20T09:52:04.595Z,18.52
2023-05-20T09:57:07.760Z,19.40
2023-05-20T10:02:10.108Z,20.02
2023-05-20T10:07:44.344Z,17.62
2023-05-20T10:13:32.761Z,20.00
2023-05-20T10:18:43.066Z,20.35
2023-05-20T10:23:45.863Z,20.23
2023-05-20T10:28:48.124Z,20.23
2023-05-20T10:33:53.236Z,20.05
2023-05-20T10:38:58.201Z,18.33
2023-05-20T10:44:07.032Z,21.30
2023-05-20T10:49:26.732Z,21.23
2023-05-20T10:54:29.590Z,20.83
2023-05-20T10:59:31.891Z,20.27
2023-05-20T11:04:34.675Z,20.67
2023-05-20T11:09:37.244Z,21.37
2023-05-20T11:14:39.481Z,20.17
2023-05-20T11:19:42.024Z,21.92
2023-05-20T11:24:44.308Z,20.62
2023-05-20T11:29:53.912Z,21.63
2023-05-20T11:34:56.132Z,23.65
2023-05-20T11:40:08.270Z,21.40
2023-05-20T11:45:14.323Z,20.23
2023-05-20T11:50:20.649Z,22.35
2023-05-20T11:55:22.881Z,22.73
2023-05-20T12:00:26.443Z,24.48
2023-05-20T12:05:31.504Z,22.62
2023-05-20T12:10:33.998Z,22.02
2023-05-20T12:15:36.868Z,23.70
2023-05-20T12:20:39.429Z,22.80
2023-05-20T12:25:41.697Z,22.92
2023-05-20T12:30:44.032Z,22.10
2023-05-20T12:35:46.872Z,22.45
2023-05-20T12:40:49.053Z,20.48
2023-05-20T12:45:52.394Z,21.77
2023-05-20T12:50:54.583Z,23.05
2023-05-20T12:55:56.873Z,20.30
2023-05-20T13:00:59.145Z,20.90
2023-05-20T13:06:01.417Z,20.23
2023-05-20T13:11:03.592Z,20.33
2023-05-20T13:16:05.984Z,20.02
2023-05-20T13:21:08.562Z,20.93
2023-05-20T13:26:11.055Z,22.05
2023-05-20T13:31:13.358Z,21.85
2023-05-20T13:36:16.060Z,21.77
2023-05-20T13:41:18.296Z,20.55
2023-05-20T13:46:20.661Z,17.42
2023-05-20T13:51:23.032Z,20.05
2023-05-20T13:56:25.346Z,18.42
2023-05-20T14:01:30.278Z,17.80
2023-05-20T14:06:33.067Z,16.73
2023-05-20T14:11:35.423Z,17.62
2023-05-20T14:16:39.582Z,18.20
2023-05-20T14:21:41.920Z,18.00
2023-05-20T14:26:44.214Z,18.03
2023-05-20T14:31:46.548Z,19.20
2023-05-20T14:36:48.958Z,18.85
2023-05-20T14:41:51.162Z,17.02
2023-05-20T14:46:53.524Z,17.90
2023-05-20T14:51:55.860Z,17.70
2023-05-20T14:56:58.066Z,17.25
2023-05-20T15:02:00.608Z,16.98
2023-05-20T15:07:03.078Z,16.67
2023-05-20T15:12:06.186Z,17.42
2023-05-20T15:17:08.576Z,15.03
2023-05-20T15:22:10.970Z,14.10
2023-05-20T15:27:13.138Z,14.43
2023-05-20T15:32:15.739Z,15.70
2023-05-20T15:37:18.048Z,16.20
2023-05-20T15:42:21.633Z,16.27
2023-05-20T15:47:23.919Z,15.48
2023-05-20T15:52:26.157Z,16.98
2023-05-20T15:57:30.541Z,15.05
2023-05-20T16:02:35.565Z,14.73
2023-05-20T16:07:39.139Z,15.03
2023-05-20T16:12:41.331Z,13.98
2023-05-20T16:17:43.606Z,13.30
2023-05-20T16:22:46.287Z,14.05
2023-05-20T16:27:48.532Z,12.15
2023-05-20T16:32:50.803Z,12.40
2023-05-20T16:37:53.004Z,12.00
2023-05-20T16:42:55.183Z,12.27
2023-05-20T16:47:57.676Z,12.40
2023-05-20T16:53:00.070Z,11.85
2023-05-20T16:58:02.994Z,11.37
2023-05-20T17:03:05.265Z,11.05
2023-05-20T17:08:07.551Z,11.63
2023-05-20T17:13:10.144Z,10.45
2023-05-20T17:18:12.456Z,10.32
2023-05-20T17:23:15.081Z,10.57
2023-05-20T17:28:17.345Z,8.63
2023-05-20T17:33:20.839Z,8.60
2023-05-20T17:38:26.198Z,8.45
2023-05-20T17:43:28.423Z,8.43
2023-05-20T17:48:30.708Z,8.00
2023-05-20T17:53:32.977Z,7.87
2023-05-20T17:58:35.306Z,8.48
2023-05-20T18:03:39.892Z,7.93
2023-05-20T18:08:42.590Z,7.60
2023-05-20T18:13:44.816Z,7.33
2023-05-20T18:18:47.004Z,7.95
2023-05-20T18:23:49.653Z,8.27
2023-05-20T18:28:51.853Z,8.00
2023-05-20T18:33:54.071Z,7.78
2023-05-20T18:38:56.603Z,8.40
2023-05-20T18:43:58.851Z,8.32
2023-05-20T18:49:01.029Z,8.77
2023-05-20T18:54:03.573Z,8.98
2023-05-20T18:59:05.806Z,8.75
2023-05-20T19:04:08.001Z,9.27
2023-05-20T19:09:10.185Z,8.85
2023-05-20T19:14:12.553Z,9.38
2023-05-20T19:19:14.890Z,9.02
2023-05-20T19:24:19.420Z,9.13
2023-05-20T19:29:21.641Z,8.83
2023-05-20T19:34:25.049Z,9.30
2023-05-20T19:39:27.311Z,8.68
2023-05-20T19:44:29.710Z,8.95
2023-05-20T19:49:33.141Z,8.60
2023-05-20T19:54:35.331Z,9.57
2023-05-20T19:59:38.332Z,10.63
2023-05-20T20:04:42.155Z,10.90
2023-05-20T20:09:45.197Z,9.40
2023-05-20T20:14:47.634Z,8.73
2023-05-20T20:19:53.130Z,9.67
2023-05-20T20:24:55.514Z,9.13
2023-05-20T20:29:57.682Z,9.27
2023-05-20T20:35:00.665Z,9.00
2023-05-20T20:40:03.247Z,9.85
2023-05-20T20:45:06.541Z,9.87
2023-05-20T20:50:09.527Z,9.98
2023-05-20T20:55:11.767Z,11.12
2023-05-20T21:00:17.560Z,10.07
2023-05-20T21:05:21.633Z,9.57
2023-05-20T21:10:29.603Z,10.00
2023-05-20T21:15:31.873Z,9.98
2023-05-20T21:20:34.051Z,9.27
2023-05-20T21:25:36.482Z,9.02
2023-05-20T21:30:38.934Z,8.77
2023-05-20T21:35:41.189Z,9.50
2023-05-20T21:40:43.351Z,9.90
2023-05-20T21:45:46.404Z,9.77
2023-05-20T21:50:48.757Z,9.82
2023-05-20T21:55:51.002Z,10.23
2023-05-20T22:00:53.581Z,10.30
2023-05-20T22:05:56.286Z,9.57
2023-05-20T22:11:00.865Z,9.70
2023-05-20T22:16:05.072Z,10.45
2023-05-20T22:21:07.729Z,10.05
2023-05-20T22:26:10.223Z,9.70
2023-05-20T22:31:12.600Z,9.43
2023-05-20T22:36:14.783Z,10.02
2023-05-20T22:41:16.981Z,9.80
2023-05-20T22:46:19.228Z,10.00
2023-05-20T22:51:22.010Z,9.70
2023-05-20T22:56:25.878Z,10.10
2023-05-20T23:01:28.133Z,9.70
2023-05-20T23:06:30.411Z,9.48
2023-05-20T23:11:32.621Z,9.98
2023-05-20T23:16:36.412Z,9.57
2023-05-20T23:21:38.607Z,9.50
2023-05-20T23:26:40.766Z,9.70
2023-05-20T23:31:43.053Z,9.57
2023-05-20T23:36:45.751Z,9.43
2023-05-20T23:41:47.982Z,9.53
2023-05-20T23:46:51.085Z,9.15
2023-05-20T23:51:53.859Z,9.85
2023-05-20T23:56:56.103Z,8.88
